createdAt,value
2018-11-14T00:00:12.527Z,93.37
2018-11-14T00:02:46.034Z,93.29
2018-11-14T00:05:19.519Z,93.48
2018-11-14T00:07:53.407Z,93.65
2018-11-14T00:10:26.386Z,93.68
2018-11-14T00:12:59.160Z,93.66
2018-11-14T00:15:35.890Z,93.64
2018-11-14T00:18:08.641Z,93.65
2018-11-14T00:20:42.445Z,93.58
2018-11-14T00:23:19.071Z,93.67
2018-11-14T00:25:53.046Z,93.75
2018-11-14T00:28:26.197Z,93.84
2018-11-14T00:31:00.626Z,93.82
2018-11-14T00:33:34.256Z,93.91
2018-11-14T00:36:07.319Z,94.14
2018-11-14T00:38:40.231Z,94.35
2018-11-14T00:41:12.774Z,94.45
2018-11-14T00:43:45.304Z,94.73
2018-11-14T00:46:19.213Z,94.76
2018-11-14T00:48:51.780Z,94.77
2018-11-14T00:51:25.614Z,94.75
2018-11-14T00:53:58.676Z,94.57
2018-11-14T00:56:32.172Z,94.41
2018-11-14T00:59:06.220Z,94.30
2018-11-14T01:01:40.021Z,94.20
2018-11-14T01:04:12.917Z,94.06
2018-11-14T01:06:45.581Z,94.02
2018-11-14T01:09:20.991Z,94.01
2018-11-14T01:11:54.582Z,94.01
2018-11-14T01:14:27.289Z,94.12
2018-11-14T01:17:00.088Z,94.74
2018-11-14T01:19:32.864Z,94.62
2018-11-14T01:22:08.146Z,94.20
2018-11-14T01:24:40.966Z,93.92
2018-11-14T01:27:13.586Z,93.74
2018-11-14T01:29:46.737Z,93.76
2018-11-14T01:32:20.266Z,93.92
2018-11-14T01:34:55.473Z,94.02
2018-11-14T01:37:28.381Z,94.05
2018-11-14T01:40:00.967Z,93.96
2018-11-14T01:42:34.323Z,93.92
2018-11-14T01:45:10.463Z,93.95
2018-11-14T01:47:45.540Z,93.87
2018-11-14T01:50:19.680Z,93.88
2018-11-14T01:52:52.233Z,94.04
2018-11-14T01:55:24.762Z,94.08
2018-11-14T01:58:02.426Z,94.14
2018-11-14T02:00:35.180Z,94.13
2018-11-14T02:03:07.892Z,94.16
2018-11-14T02:05:41.287Z,94.26
2018-11-14T02:08:13.777Z,94.34
2018-11-14T02:10:51.261Z,94.36
2018-11-14T02:13:24.236Z,94.22
2018-11-14T02:15:56.765Z,94.25
2018-11-14T02:18:30.954Z,94.25
2018-11-14T02:21:03.913Z,94.32
2018-11-14T02:23:36.781Z,94.28
2018-11-14T02:26:09.431Z,94.44
2018-11-14T02:28:43.446Z,94.52
2018-11-14T02:31:16.286Z,94.51
2018-11-14T02:33:49.234Z,94.58
2018-11-14T02:36:22.187Z,94.60
2018-11-14T02:38:54.859Z,94.57
2018-11-14T02:41:27.370Z,94.70
2018-11-14T02:44:00.302Z,94.77
2018-11-14T02:46:34.192Z,94.83
2018-11-14T02:49:07.568Z,94.65
2018-11-14T02:51:41.412Z,94.62
2018-11-14T02:54:13.959Z,94.56
2018-11-14T02:56:48.373Z,94.62
2018-11-14T02:59:21.365Z,94.74
2018-11-14T03:01:53.885Z,94.80
2018-11-14T03:04:27.750Z,94.80
2018-11-14T03:07:00.936Z,94.87
2018-11-14T03:09:34.017Z,94.95
2018-11-14T03:12:09.586Z,95.07
2018-11-14T03:14:42.788Z,95.08
2018-11-14T03:17:15.913Z,94.94
2018-11-14T03:19:48.534Z,94.78
2018-11-14T03:22:23.966Z,94.81
2018-11-14T03:24:57.330Z,94.90
2018-11-14T03:27:29.923Z,94.85
2018-11-14T03:30:06.377Z,94.76
2018-11-14T03:32:39.553Z,94.87
2018-11-14T03:35:12.939Z,94.90
2018-11-14T03:37:45.776Z,94.95
2018-11-14T03:40:18.319Z,94.97
2018-11-14T03:42:50.928Z,95.02
2018-11-14T03:45:23.950Z,94.97
2018-11-14T03:47:56.476Z,94.97
2018-11-14T03:50:29.128Z,94.99
2018-11-14T03:53:03.310Z,95.01
2018-11-14T03:55:37.277Z,94.91
2018-11-14T03:58:09.864Z,94.92
2018-11-14T04:00:42.925Z,95.07
2018-11-14T04:03:15.665Z,95.13
2018-11-14T04:05:48.492Z,95.17
2018-11-14T04:08:21.693Z,95.43
2018-11-14T04:10:54.198Z,95.52
2018-11-14T04:13:27.613Z,95.47
2018-11-14T04:16:01.307Z,95.40
2018-11-14T04:18:34.026Z,95.31
2018-11-14T04:21:06.999Z,95.30
2018-11-14T04:23:55.913Z,95.29
2018-11-14T04:26:28.455Z,95.47
2018-11-14T04:29:01.135Z,95.65
2018-11-14T04:31:34.130Z,95.93
2018-11-14T04:34:08.779Z,96.25
2018-11-14T04:36:42.053Z,96.29
2018-11-14T04:39:15.171Z,96.28
2018-11-14T04:41:47.837Z,96.32
2018-11-14T04:44:20.453Z,96.37
2018-11-14T04:46:53.365Z,96.49
2018-11-14T04:49:26.042Z,96.56
2018-11-14T04:52:00.312Z,96.48
2018-11-14T04:54:36.245Z,96.42
2018-11-14T04:57:09.489Z,96.34
2018-11-14T04:59:42.504Z,96.30
2018-11-14T05:02:16.711Z,96.31
2018-11-14T05:04:50.749Z,96.23
2018-11-14T05:07:23.449Z,96.18
2018-11-14T05:09:56.257Z,96.21
2018-11-14T05:12:30.342Z,96.18
2018-11-14T05:15:04.873Z,96.11
2018-11-14T05:17:38.990Z,96.11
2018-11-14T05:20:13.308Z,96.05
2018-11-14T05:22:46.162Z,96.25
2018-11-14T05:25:20.922Z,96.16
2018-11-14T05:27:53.542Z,96.12
2018-11-14T05:30:26.186Z,96.12
2018-11-14T05:33:00.835Z,96.14
2018-11-14T05:35:33.540Z,96.16
2018-11-14T05:38:06.531Z,96.15
2018-11-14T05:40:40.587Z,96.16
2018-11-14T05:43:16.881Z,96.15
2018-11-14T05:45:49.958Z,96.28
2018-11-14T05:48:27.343Z,96.33
2018-11-14T05:51:01.814Z,96.27
2018-11-14T05:53:36.743Z,96.30
2018-11-14T05:56:09.690Z,96.29
2018-11-14T05:58:42.433Z,96.32
2018-11-14T06:01:15.047Z,96.44
2018-11-14T06:03:49.540Z,96.53
2018-11-14T06:06:24.006Z,96.62
2018-11-14T06:09:00.562Z,96.73
2018-11-14T06:11:33.790Z,96.95
2018-11-14T06:14:07.019Z,97.10
2018-11-14T06:16:43.658Z,97.18
2018-11-14T06:19:19.453Z,97.24
2018-11-14T06:21:52.335Z,97.22
2018-11-14T06:24:25.074Z,97.23
2018-11-14T06:27:00.479Z,97.16
2018-11-14T06:29:33.682Z,97.16
2018-11-14T06:32:07.069Z,97.03
2018-11-14T06:34:40.234Z,97.01
2018-11-14T06:37:12.890Z,96.95
2018-11-14T06:39:45.601Z,96.90
2018-11-14T06:42:19.619Z,96.92
2018-11-14T06:44:53.412Z,96.98
2018-11-14T06:47:26.329Z,97.00
2018-11-14T06:49:59.261Z,97.01
2018-11-14T06:52:33.462Z,97.01
2018-11-14T06:55:09.164Z,97.05
2018-11-14T06:57:42.543Z,97.28
2018-11-14T07:00:23.501Z,97.36
2018-11-14T07:02:58.142Z,97.47
2018-11-14T07:05:31.664Z,97.58
2018-11-14T07:08:05.961Z,97.54
2018-11-14T07:10:39.157Z,97.54
2018-11-14T07:13:12.578Z,97.49
2018-11-14T07:15:49.123Z,97.54
2018-11-14T07:18:22.858Z,97.53
2018-11-14T07:20:55.965Z,97.49
2018-11-14T07:23:29.790Z,97.50
2018-11-14T07:26:03.351Z,97.41
2018-11-14T07:28:36.354Z,97.27
2018-11-14T07:31:11.454Z,97.23
2018-11-14T07:33:44.147Z,97.19
2018-11-14T07:36:16.916Z,97.19
2018-11-14T07:38:52.562Z,97.08
2018-11-14T07:41:40.353Z,96.98
2018-11-14T07:44:13.500Z,96.84
2018-11-14T07:46:50.047Z,96.75
2018-11-14T07:49:23.315Z,96.63
2018-11-14T07:55:06.882Z,96.36
2018-11-14T07:57:42.435Z,96.31
2018-11-14T08:00:17.030Z,96.10
2018-11-14T08:02:51.725Z,96.13
2018-11-14T08:05:24.623Z,96.13
2018-11-14T08:07:57.865Z,96.15
2018-11-14T08:10:33.642Z,96.16
2018-11-14T08:13:08.814Z,96.23
2018-11-14T08:15:45.224Z,96.37
2018-11-14T08:18:22.261Z,96.25
2018-11-14T08:20:57.238Z,95.95
2018-11-14T08:23:35.706Z,95.59
2018-11-14T08:26:09.644Z,95.33
2018-11-14T08:28:44.644Z,94.94
2018-11-14T08:31:18.671Z,94.51
2018-11-14T08:33:52.680Z,94.18
2018-11-14T08:36:26.942Z,93.99
2018-11-14T08:39:00.680Z,93.62
2018-11-14T08:41:36.395Z,93.27
2018-11-14T08:44:10.309Z,92.85
2018-11-14T08:46:44.725Z,92.70
2018-11-14T08:49:19.210Z,92.65
2018-11-14T08:51:54.410Z,92.54
2018-11-14T08:54:29.331Z,92.33
2018-11-14T08:57:04.183Z,92.06
2018-11-14T08:59:37.653Z,91.09
2018-11-14T09:02:10.215Z,91.04
2018-11-14T09:04:46.389Z,90.72
2018-11-14T09:07:20.565Z,90.59
2018-11-14T09:09:54.405Z,90.57
2018-11-14T09:12:30.250Z,90.38
2018-11-14T09:15:09.288Z,90.00
2018-11-14T09:17:47.397Z,90.21
2018-11-14T09:20:23.830Z,89.49
2018-11-14T09:22:56.494Z,88.92
2018-11-14T09:25:32.281Z,88.08
2018-11-14T09:28:07.760Z,87.44
2018-11-14T09:30:44.898Z,87.38
2018-11-14T09:33:35.886Z,86.98
2018-11-14T09:36:11.690Z,86.25
2018-11-14T09:38:52.370Z,86.35
2018-11-14T09:41:28.593Z,87.00
2018-11-14T09:44:02.412Z,85.73
2018-11-14T09:46:35.994Z,86.01
2018-11-14T09:51:46.136Z,85.10
2018-11-14T09:54:20.250Z,85.24
2018-11-14T09:56:54.986Z,84.56
2018-11-14T09:59:28.016Z,81.57
2018-11-14T10:02:02.856Z,77.80
2018-11-14T10:04:38.252Z,76.82
2018-11-14T10:07:12.440Z,74.49
2018-11-14T10:09:48.452Z,72.86
2018-11-14T10:12:28.167Z,72.80
2018-11-14T10:15:07.398Z,72.41
2018-11-14T10:17:45.798Z,72.07
2018-11-14T10:20:23.527Z,70.63
2018-11-14T10:23:01.850Z,70.82
2018-11-14T10:25:38.878Z,69.79
2018-11-14T10:28:11.954Z,69.36
2018-11-14T10:30:46.172Z,69.55
2018-11-14T10:33:19.959Z,69.02
2018-11-14T10:35:55.423Z,70.86
2018-11-14T10:38:31.022Z,68.98
2018-11-14T10:41:04.510Z,68.99
2018-11-14T10:43:42.092Z,66.41
2018-11-14T10:46:34.204Z,67.64
2018-11-14T10:49:08.109Z,67.20
2018-11-14T10:51:48.902Z,67.96
2018-11-14T10:54:22.955Z,67.51
2018-11-14T10:56:55.961Z,66.85
2018-11-14T10:59:33.189Z,67.40
2018-11-14T11:02:13.437Z,66.13
2018-11-14T11:04:53.532Z,66.90
2018-11-14T11:07:33.735Z,67.05
2018-11-14T11:10:13.498Z,65.34
2018-11-14T11:12:53.200Z,64.01
2018-11-14T11:15:50.101Z,64.22
2018-11-14T11:18:25.723Z,63.50
2018-11-14T11:21:00.394Z,62.00
2018-11-14T11:23:34.757Z,62.46
2018-11-14T11:26:09.906Z,61.75
2018-11-14T11:28:44.172Z,61.93
2018-11-14T11:31:20.104Z,62.24
2018-11-14T11:33:55.756Z,62.35
2018-11-14T11:36:29.986Z,62.02
2018-11-14T11:39:10.476Z,61.37
2018-11-14T11:41:45.242Z,61.52
2018-11-14T11:44:19.819Z,61.35
2018-11-14T11:46:55.917Z,60.05
2018-11-14T11:49:29.315Z,60.49
2018-11-14T11:52:05.513Z,60.43
2018-11-14T11:54:38.345Z,59.74
2018-11-14T11:57:20.615Z,59.92
2018-11-14T11:59:53.913Z,59.84
2018-11-14T12:02:28.983Z,59.70
2018-11-14T12:05:03.637Z,59.90
2018-11-14T12:07:41.295Z,59.78
2018-11-14T12:10:15.014Z,60.38
2018-11-14T12:12:48.256Z,60.53
2018-11-14T12:15:21.270Z,60.73
2018-11-14T12:17:56.073Z,59.96
2018-11-14T12:20:31.545Z,59.60
2018-11-14T12:23:14.421Z,58.67
2018-11-14T12:25:56.749Z,58.92
2018-11-14T12:28:32.380Z,59.30
2018-11-14T12:31:09.342Z,58.64
2018-11-14T12:33:44.296Z,59.03
2018-11-14T12:36:17.992Z,59.13
2018-11-14T12:38:52.782Z,58.98
2018-11-14T12:41:28.658Z,58.89
2018-11-14T12:44:01.280Z,59.75
2018-11-14T12:46:37.669Z,59.90
2018-11-14T12:49:10.666Z,59.92
2018-11-14T12:51:46.736Z,60.07
2018-11-14T12:54:19.389Z,59.03
2018-11-14T12:56:54.077Z,58.81
2018-11-14T12:59:32.338Z,58.31
2018-11-14T13:02:07.338Z,58.62
2018-11-14T13:04:44.653Z,58.43
2018-11-14T13:07:18.453Z,58.79
2018-11-14T13:09:52.428Z,58.68
2018-11-14T13:12:30.632Z,59.02
2018-11-14T13:15:06.533Z,59.05
2018-11-14T13:17:39.913Z,59.46
2018-11-14T13:20:17.878Z,59.65
2018-11-14T13:22:52.721Z,59.71
2018-11-14T13:25:30.873Z,60.26
2018-11-14T13:28:06.065Z,59.85
2018-11-14T13:30:40.082Z,59.89
2018-11-14T13:33:17.823Z,60.40
2018-11-14T13:35:58.762Z,60.57
2018-11-14T13:38:33.738Z,60.88
2018-11-14T13:41:09.827Z,60.88
2018-11-14T13:43:46.947Z,60.62
2018-11-14T13:46:20.283Z,60.74
2018-11-14T13:48:56.388Z,60.76
2018-11-14T13:51:34.810Z,61.03
2018-11-14T13:54:10.681Z,61.09
2018-11-14T13:56:45.132Z,61.57
2018-11-14T13:59:19.832Z,61.77
2018-11-14T14:01:57.443Z,61.51
2018-11-14T14:04:35.577Z,61.66
2018-11-14T14:07:10.307Z,61.43
2018-11-14T14:09:44.807Z,61.69
2018-11-14T14:12:23.744Z,61.71
2018-11-14T14:14:57.346Z,61.79
2018-11-14T14:17:32.959Z,61.68
2018-11-14T14:20:09.159Z,61.91
2018-11-14T14:22:52.027Z,62.02
2018-11-14T14:25:31.008Z,62.13
2018-11-14T14:28:10.231Z,62.22
2018-11-14T14:30:47.727Z,62.10
2018-11-14T14:33:23.140Z,62.19
2018-11-14T14:36:01.644Z,62.09
2018-11-14T14:38:38.353Z,62.58
2018-11-14T14:41:12.346Z,62.97
2018-11-14T14:43:50.355Z,63.30
2018-11-14T14:46:26.559Z,63.38
2018-11-14T14:49:01.516Z,63.71
2018-11-14T14:51:43.021Z,64.02
2018-11-14T14:54:26.834Z,64.19
2018-11-14T14:57:02.404Z,64.49
2018-11-14T14:59:43.521Z,64.99
2018-11-14T15:02:19.317Z,65.28
2018-11-14T15:04:53.718Z,65.60
2018-11-14T15:07:32.032Z,65.79
2018-11-14T15:10:18.591Z,65.96
2018-11-14T15:13:03.377Z,66.27
2018-11-14T15:15:39.608Z,66.80
2018-11-14T15:18:18.427Z,66.93
2018-11-14T15:20:54.738Z,67.11
2018-11-14T15:23:29.816Z,67.56
2018-11-14T15:26:08.414Z,67.97
2018-11-14T15:28:48.139Z,68.24
2018-11-14T15:31:22.159Z,68.28
2018-11-14T15:33:59.075Z,68.52
2018-11-14T15:36:36.605Z,68.86
2018-11-14T15:39:13.154Z,69.25
2018-11-14T15:41:51.371Z,69.89
2018-11-14T15:44:26.627Z,70.18
2018-11-14T15:47:09.615Z,70.69
2018-11-14T15:49:42.946Z,71.71
2018-11-14T15:52:16.747Z,72.05
2018-11-14T15:54:53.679Z,72.52
2018-11-14T15:57:27.118Z,73.43
2018-11-14T16:00:18.412Z,73.48
2018-11-14T16:02:54.306Z,74.10
2018-11-14T16:05:33.060Z,74.55
2018-11-14T16:08:15.676Z,75.50
2018-11-14T16:10:55.017Z,75.70
2018-11-14T16:13:30.023Z,75.68
2018-11-14T16:16:04.855Z,76.05
2018-11-14T16:18:43.111Z,76.20
2018-11-14T16:21:18.432Z,76.25
2018-11-14T16:23:53.761Z,76.87
2018-11-14T16:26:33.587Z,77.47
2018-11-14T16:29:10.012Z,77.20
2018-11-14T16:31:49.228Z,77.18
2018-11-14T16:34:36.170Z,77.53
2018-11-14T16:37:09.761Z,77.68
2018-11-14T16:39:50.536Z,77.92
2018-11-14T16:42:29.643Z,78.08
2018-11-14T16:45:13.564Z,78.09
2018-11-14T16:47:50.055Z,78.60
2018-11-14T16:50:27.221Z,79.02
2018-11-14T16:53:08.147Z,79.12
2018-11-14T16:55:45.396Z,79.46
2018-11-14T16:58:21.479Z,79.45
2018-11-14T17:00:55.455Z,79.77
2018-11-14T17:03:28.170Z,79.66
2018-11-14T17:06:03.576Z,79.55
2018-11-14T17:08:39.186Z,79.70
2018-11-14T17:11:15.862Z,79.82
2018-11-14T17:13:51.916Z,79.77
2018-11-14T17:16:29.355Z,80.16
2018-11-14T17:19:06.992Z,80.17
2018-11-14T17:21:42.024Z,80.13
2018-11-14T17:24:20.647Z,80.79
2018-11-14T17:26:57.017Z,80.73
2018-11-14T17:29:31.990Z,80.50
2018-11-14T17:32:07.764Z,80.87
2018-11-14T17:34:48.948Z,80.80
2018-11-14T17:37:24.465Z,81.20
2018-11-14T17:40:01.601Z,81.42
2018-11-14T17:42:43.559Z,81.75
2018-11-14T17:45:23.059Z,81.91
2018-11-14T17:48:00.090Z,82.08
2018-11-14T17:50:44.537Z,82.06
2018-11-14T17:53:26.113Z,82.62
2018-11-14T17:56:04.691Z,82.69
2018-11-14T17:58:38.694Z,82.84
2018-11-14T18:01:17.104Z,82.84
2018-11-14T18:03:54.664Z,82.66
2018-11-14T18:06:28.797Z,83.14
2018-11-14T18:09:04.465Z,83.30
2018-11-14T18:11:40.830Z,82.69
2018-11-14T18:14:26.529Z,81.76
2018-11-14T18:17:03.600Z,81.49
2018-11-14T18:19:41.525Z,80.83
2018-11-14T18:22:22.354Z,80.97
2018-11-14T18:25:03.346Z,81.49
2018-11-14T18:27:39.853Z,82.24
2018-11-14T18:30:24.783Z,82.42
2018-11-14T18:33:04.338Z,83.33
2018-11-14T18:35:43.140Z,83.38
2018-11-14T18:38:21.678Z,81.98
2018-11-14T18:41:04.032Z,81.98
2018-11-14T18:43:39.844Z,82.31
2018-11-14T18:46:17.235Z,82.81
2018-11-14T18:48:54.649Z,83.24
2018-11-14T18:51:32.234Z,83.71
2018-11-14T18:54:11.531Z,83.87
2018-11-14T18:56:45.857Z,84.05
2018-11-14T18:59:22.088Z,84.04
2018-11-14T19:01:56.425Z,84.57
2018-11-14T19:04:31.480Z,84.52
2018-11-14T19:07:08.518Z,84.78
2018-11-14T19:09:42.490Z,85.10
2018-11-14T19:12:27.748Z,85.12
2018-11-14T19:15:16.323Z,85.53
2018-11-14T19:17:52.123Z,85.90
2018-11-14T19:20:32.641Z,85.83
2018-11-14T19:23:07.392Z,86.30
2018-11-14T19:25:40.989Z,86.25
2018-11-14T19:28:15.485Z,86.22
2018-11-14T19:30:53.931Z,86.07
2018-11-14T19:33:28.737Z,86.24
2018-11-14T19:36:02.765Z,86.35
2018-11-14T19:38:39.825Z,86.46
2018-11-14T19:41:16.670Z,86.71
2018-11-14T19:43:59.916Z,86.91
2018-11-14T19:46:34.252Z,86.89
2018-11-14T19:49:16.927Z,86.81
2018-11-14T19:51:54.027Z,86.95
2018-11-14T19:54:31.454Z,87.30
2018-11-14T19:57:09.072Z,87.33
2018-11-14T19:59:49.665Z,87.49
2018-11-14T20:02:27.727Z,87.27
2018-11-14T20:05:04.778Z,87.18
2018-11-14T20:07:42.130Z,87.18
2018-11-14T20:10:18.008Z,87.22
2018-11-14T20:13:01.551Z,87.16
2018-11-14T20:15:43.633Z,87.43
2018-11-14T20:18:24.062Z,87.76
2018-11-14T20:21:02.807Z,88.17
2018-11-14T20:23:38.455Z,88.02
2018-11-14T20:26:12.343Z,88.01
2018-11-14T20:28:48.451Z,88.24
2018-11-14T20:31:29.171Z,88.15
2018-11-14T20:34:06.408Z,88.31
2018-11-14T20:36:39.690Z,88.41
2018-11-14T20:39:20.336Z,88.79
2018-11-14T20:41:55.282Z,88.95
2018-11-14T20:44:32.523Z,89.29
2018-11-14T20:47:12.411Z,89.17
2018-11-14T20:49:46.702Z,89.66
2018-11-14T20:52:36.537Z,89.80
2018-11-14T20:55:14.522Z,89.80
2018-11-14T20:57:49.877Z,90.12
2018-11-14T21:00:29.250Z,90.32
2018-11-14T21:03:06.625Z,90.34
2018-11-14T21:08:37.929Z,90.59
2018-11-14T21:11:19.637Z,90.56
2018-11-14T21:13:57.230Z,90.62
2018-11-14T21:16:30.994Z,90.78
2018-11-14T21:19:11.505Z,90.71
2018-11-14T21:21:45.311Z,90.74
2018-11-14T21:24:21.555Z,90.62
2018-11-14T21:26:57.513Z,90.83
2018-11-14T21:29:34.267Z,90.85
2018-11-14T21:32:09.960Z,90.91
2018-11-14T21:34:48.272Z,90.88
2018-11-14T21:37:22.353Z,91.10
2018-11-14T21:39:56.190Z,91.41
2018-11-14T21:42:35.706Z,91.40
2018-11-14T21:45:17.365Z,91.31
2018-11-14T21:47:57.353Z,91.22
2018-11-14T21:50:32.764Z,90.98
2018-11-14T21:53:09.888Z,90.97
2018-11-14T21:55:44.501Z,91.18
2018-11-14T21:58:22.532Z,91.72
2018-11-14T22:00:56.022Z,92.07
2018-11-14T22:03:31.387Z,92.40
2018-11-14T22:06:05.169Z,92.29
2018-11-14T22:08:41.681Z,92.20
2018-11-14T22:11:15.937Z,92.38
2018-11-14T22:13:50.167Z,92.66
2018-11-14T22:16:24.672Z,92.65
2018-11-14T22:19:01.302Z,92.81
2018-11-14T22:21:37.087Z,92.96
2018-11-14T22:24:11.955Z,93.24
2018-11-14T22:26:45.430Z,93.57
2018-11-14T22:29:18.382Z,93.74
2018-11-14T22:31:53.351Z,93.91
2018-11-14T22:34:29.873Z,93.56
2018-11-14T22:37:03.512Z,93.40
2018-11-14T22:39:38.826Z,93.57
2018-11-14T22:42:16.026Z,93.52
2018-11-14T22:44:50.207Z,93.88
2018-11-14T22:47:25.621Z,93.81
2018-11-14T22:49:59.341Z,93.99
2018-11-14T22:52:33.295Z,94.34
2018-11-14T22:55:10.565Z,94.46
2018-11-14T22:57:45.494Z,94.48
2018-11-14T23:00:26.899Z,94.42
2018-11-14T23:03:02.229Z,94.59
2018-11-14T23:05:38.956Z,94.81
2018-11-14T23:08:14.878Z,94.87
2018-11-14T23:10:49.393Z,94.88
2018-11-14T23:13:22.894Z,95.09
2018-11-14T23:15:59.352Z,95.27
2018-11-14T23:18:33.057Z,95.38
2018-11-14T23:21:07.021Z,95.53
2018-11-14T23:23:41.511Z,95.67
2018-11-14T23:26:15.839Z,95.73
2018-11-14T23:28:51.557Z,95.79
2018-11-14T23:31:26.661Z,95.70
2018-11-14T23:34:04.021Z,95.79
2018-11-14T23:36:37.370Z,96.01
2018-11-14T23:39:12.669Z,96.12
2018-11-14T23:41:48.432Z,96.05
2018-11-14T23:44:23.311Z,96.21
2018-11-14T23:46:56.045Z,96.24
2018-11-14T23:49:31.260Z,96.42
2018-11-14T23:52:06.233Z,96.66
2018-11-14T23:54:40.180Z,96.59
2018-11-14T23:57:13.677Z,96.53
2018-11-14T23:59:46.361Z,96.53
